createdAt,value
2022-09-14T00:01:26.848Z,68921.38
2022-09-14T00:04:01.472Z,68919.28
2022-09-14T00:06:30.135Z,68918.72
2022-09-14T00:09:00.750Z,68918.72
2022-09-14T00:11:31.244Z,68918.91
2022-09-14T00:13:59.648Z,68911.31
2022-09-14T00:16:33.255Z,68887.69
2022-09-14T00:19:06.655Z,68908.47
2022-09-14T00:21:36.178Z,68908.47
2022-09-14T00:24:05.275Z,68912.84
2022-09-14T00:26:32.678Z,68912.44
2022-09-14T00:29:04.601Z,68915.09
2022-09-14T00:31:38.269Z,68918.91
2022-09-14T00:34:08.102Z,68896.22
2022-09-14T00:36:40.270Z,68919.28
2022-09-14T00:39:08.734Z,68923.81
2022-09-14T00:41:43.233Z,68927.66
2022-09-14T00:44:10.671Z,68908.75
2022-09-14T00:46:41.053Z,68932.75
2022-09-14T00:49:12.609Z,68934.31
2022-09-14T00:51:47.928Z,68930.50
2022-09-14T00:54:15.487Z,68923.44
2022-09-14T00:56:42.715Z,68932.38
2022-09-14T00:59:17.492Z,68918.72
2022-09-14T01:01:45.485Z,68917.38
2022-09-14T01:04:12.653Z,68916.81
2022-09-14T01:07:17.171Z,68919.09
2022-09-14T01:10:08.498Z,68918.53
2022-09-14T01:12:47.993Z,68919.09
2022-09-14T01:15:21.684Z,68917.78
2022-09-14T01:18:08.077Z,68913.59
2022-09-14T01:20:44.590Z,68915.50
2022-09-14T01:23:22.546Z,68912.28
2022-09-14T01:26:12.075Z,68892.25
2022-09-14T01:29:02.990Z,68916.25
2022-09-14T01:31:47.798Z,68916.81
2022-09-14T01:34:31.930Z,68909.78
2022-09-14T01:37:13.344Z,68913.22
2022-09-14T01:39:45.701Z,68908.84
2022-09-14T01:42:13.539Z,68910.00
2022-09-14T01:44:46.777Z,68909.41
2022-09-14T01:47:20.509Z,68908.84
2022-09-14T01:49:52.597Z,68913.97
2022-09-14T01:52:25.870Z,68907.88
2022-09-14T01:55:00.164Z,68915.50
2022-09-14T01:57:37.068Z,68917.38
2022-09-14T02:00:10.821Z,68914.16
2022-09-14T02:02:47.058Z,68913.97
2022-09-14T02:05:26.190Z,68912.84
2022-09-14T02:07:54.209Z,68919.09
2022-09-14T02:10:22.805Z,68922.91
2022-09-14T02:12:52.012Z,68912.28
2022-09-14T02:15:20.159Z,68905.44
2022-09-14T02:17:48.114Z,68899.94
2022-09-14T02:20:21.937Z,68904.47
2022-09-14T02:22:51.632Z,68890.47
2022-09-14T02:25:20.312Z,68888.94
2022-09-14T02:27:48.838Z,68880.03
2022-09-14T02:30:17.731Z,68873.19
2022-09-14T02:33:08.426Z,68872.44
2022-09-14T02:35:47.123Z,68861.63
2022-09-14T02:38:29.350Z,68853.84
2022-09-14T02:41:15.145Z,68837.66
2022-09-14T02:44:18.544Z,68866.00
2022-09-14T02:47:24.028Z,68859.53
2022-09-14T02:50:07.988Z,68833.66
2022-09-14T02:52:57.380Z,68859.34
2022-09-14T02:55:29.392Z,68862.38
2022-09-14T02:58:08.104Z,68862.75
2022-09-14T03:00:38.738Z,68881.38
2022-09-14T03:03:08.503Z,68865.41
2022-09-14T03:05:36.377Z,68847.59
2022-09-14T03:08:04.346Z,68853.31
2022-09-14T03:10:32.466Z,68836.03
2022-09-14T03:13:00.246Z,68829.94
2022-09-14T03:15:28.401Z,68809.22
2022-09-14T03:17:56.019Z,68827.69
2022-09-14T03:20:29.258Z,68823.69
2022-09-14T03:22:58.549Z,68826.72
2022-09-14T03:25:26.637Z,68809.22
2022-09-14T03:27:56.274Z,68795.00
2022-09-14T03:30:24.210Z,68821.25
2022-09-14T03:32:51.322Z,68828.63
2022-09-14T03:35:19.598Z,68832.22
2022-09-14T03:37:47.167Z,68821.03
2022-09-14T03:40:21.339Z,68822.38
2022-09-14T03:42:50.958Z,68819.13
2022-09-14T03:45:20.053Z,68826.38
2022-09-14T03:47:47.830Z,68822.19
2022-09-14T03:50:15.650Z,68821.81
2022-09-14T03:52:42.815Z,68827.88
2022-09-14T03:55:10.775Z,68827.50
2022-09-14T03:57:38.262Z,68832.63
2022-09-14T04:00:07.317Z,68810.91
2022-09-14T04:02:39.201Z,68833.00
2022-09-14T04:05:07.244Z,68833.94
2022-09-14T04:07:34.423Z,68837.91
2022-09-14T04:10:01.580Z,68843.22
2022-09-14T04:12:28.740Z,68849.84
2022-09-14T04:14:55.806Z,68849.84
2022-09-14T04:17:25.813Z,68850.81
2022-09-14T04:19:52.880Z,68847.59
2022-09-14T04:22:20.008Z,68851.00
2022-09-14T04:24:47.792Z,68853.66
2022-09-14T04:27:14.897Z,68862.59
2022-09-14T04:29:42.401Z,68862.19
2022-09-14T04:32:09.542Z,68868.84
2022-09-14T04:34:36.757Z,68843.91
2022-09-14T04:37:04.424Z,68862.94
2022-09-14T04:39:31.515Z,68861.03
2022-09-14T04:41:58.548Z,68858.00
2022-09-14T04:44:25.696Z,68863.34
2022-09-14T04:46:53.100Z,68865.06
2022-09-14T04:49:21.565Z,68865.06
2022-09-14T04:51:48.901Z,68866.75
2022-09-14T04:54:17.820Z,68866.75
2022-09-14T04:56:45.975Z,68842.75
2022-09-14T04:59:15.332Z,68863.50
2022-09-14T05:01:44.999Z,68866.38
2022-09-14T05:04:12.543Z,68867.50
2022-09-14T05:06:42.176Z,68866.19
2022-09-14T05:09:14.741Z,68868.28
2022-09-14T05:11:42.028Z,68866.19
2022-09-14T05:14:13.125Z,68862.94
2022-09-14T05:16:42.169Z,68860.47
2022-09-14T05:19:14.187Z,68838.22
2022-09-14T05:21:41.612Z,68868.06
2022-09-14T05:24:17.479Z,68859.72
2022-09-14T05:26:45.603Z,68860.09
2022-09-14T05:29:14.921Z,68859.13
2022-09-14T05:31:42.393Z,68864.28
2022-09-14T05:34:10.802Z,68865.06
2022-09-14T05:36:39.560Z,68860.09
2022-09-14T05:39:07.959Z,68850.03
2022-09-14T05:41:35.621Z,68853.44
2022-09-14T05:44:03.153Z,68860.47
2022-09-14T05:46:30.388Z,68861.81
2022-09-14T05:48:57.541Z,68861.03
2022-09-14T05:51:27.253Z,68875.84
2022-09-14T05:53:57.089Z,68869.03
2022-09-14T05:56:27.217Z,68871.47
2022-09-14T05:58:54.846Z,68868.06
2022-09-14T06:01:24.593Z,68873.19
2022-09-14T06:03:56.964Z,68885.13
2022-09-14T06:06:24.511Z,68886.09
2022-09-14T06:08:54.108Z,68887.41
2022-09-14T06:11:24.393Z,68894.63
2022-09-14T06:13:51.707Z,68897.84
2022-09-14T06:16:20.622Z,68886.84
2022-09-14T06:18:48.882Z,68854.72
2022-09-14T06:21:19.277Z,68852.41
2022-09-14T06:23:47.984Z,68873.19
2022-09-14T06:26:15.805Z,68875.44
2022-09-14T06:28:42.952Z,68881.53
2022-09-14T06:31:13.020Z,68877.56
2022-09-14T06:33:44.919Z,68888.38
2022-09-14T06:36:14.504Z,68884.00
2022-09-14T06:38:42.964Z,68883.25
2022-09-14T06:41:12.273Z,68875.44
2022-09-14T06:43:40.998Z,68856.97
2022-09-14T06:46:22.229Z,68873.94
2022-09-14T06:48:52.630Z,68877.38
2022-09-14T06:51:22.257Z,68870.34
2022-09-14T06:53:50.036Z,68872.44
2022-09-14T06:56:18.125Z,68873.00
2022-09-14T06:58:45.544Z,68864.81
2022-09-14T07:01:15.306Z,68860.28
2022-09-14T07:03:43.937Z,68866.19
2022-09-14T07:06:14.651Z,68868.63
2022-09-14T07:08:41.797Z,68871.31
2022-09-14T07:11:11.809Z,68877.94
2022-09-14T07:13:41.228Z,68880.38
2022-09-14T07:16:08.840Z,68885.72
2022-09-14T07:18:36.650Z,68883.81
2022-09-14T07:21:09.742Z,68881.34
2022-09-14T07:23:39.049Z,68884.16
2022-09-14T07:26:13.691Z,68884.56
2022-09-14T07:28:42.478Z,68886.66
2022-09-14T07:31:17.783Z,68894.03
2022-09-14T07:33:46.007Z,68887.03
2022-09-14T07:36:14.408Z,68886.44
2022-09-14T07:38:52.265Z,68890.66
2022-09-14T07:41:21.588Z,68887.97
2022-09-14T07:43:53.982Z,68891.03
2022-09-14T07:46:21.956Z,68879.44
2022-09-14T07:48:54.218Z,68886.66
2022-09-14T07:51:22.200Z,68884.00
2022-09-14T07:53:50.285Z,68891.78
2022-09-14T07:56:17.677Z,68891.38
2022-09-14T07:58:45.507Z,68899.75
2022-09-14T08:01:14.132Z,68900.50
2022-09-14T08:03:43.462Z,68907.13
2022-09-14T08:06:16.108Z,68911.13
2022-09-14T08:08:45.047Z,68913.03
2022-09-14T08:11:15.161Z,68926.50
2022-09-14T08:13:44.997Z,68930.13
2022-09-14T08:16:13.722Z,68930.50
2022-09-14T08:18:42.186Z,68926.50
2022-09-14T08:21:12.536Z,68925.56
2022-09-14T08:23:41.043Z,68927.66
2022-09-14T08:26:17.322Z,68932.19
2022-09-14T08:28:45.491Z,68929.13
2022-09-14T08:31:16.802Z,68923.47
2022-09-14T08:33:46.554Z,68910.00
2022-09-14T08:36:16.354Z,68907.88
2022-09-14T08:38:43.799Z,68899.94
2022-09-14T08:41:32.556Z,68897.66
2022-09-14T08:44:04.533Z,68899.94
2022-09-14T08:46:35.469Z,68901.06
2022-09-14T08:49:10.882Z,68902.19
2022-09-14T08:51:37.955Z,68909.03
2022-09-14T08:54:04.993Z,68913.78
2022-09-14T08:56:34.240Z,68912.84
2022-09-14T08:59:42.429Z,68885.41
2022-09-14T09:02:25.859Z,68911.88
2022-09-14T09:05:15.102Z,68894.53
2022-09-14T09:07:52.116Z,68906.75
2022-09-14T09:10:20.671Z,68908.09
2022-09-14T09:12:54.215Z,68909.59
2022-09-14T09:15:25.584Z,68907.31
2022-09-14T09:18:01.249Z,68886.56
2022-09-14T09:20:33.054Z,68905.03
2022-09-14T09:23:23.529Z,68904.31
2022-09-14T09:26:09.586Z,68905.63
2022-09-14T09:28:45.797Z,68905.44
2022-09-14T09:31:15.042Z,68900.09
2022-09-14T09:34:06.449Z,68906.75
2022-09-14T09:36:40.566Z,68888.81
2022-09-14T09:39:07.936Z,68915.09
2022-09-14T09:41:51.117Z,68924.78
2022-09-14T09:44:18.512Z,68920.41
2022-09-14T09:46:50.266Z,68923.66
2022-09-14T09:49:33.191Z,68922.31
2022-09-14T09:52:17.353Z,68939.78
2022-09-14T09:54:51.422Z,68946.44
2022-09-14T09:57:33.661Z,68946.44
2022-09-14T10:00:11.407Z,68939.78
2022-09-14T10:02:40.454Z,68937.50
2022-09-14T10:05:10.940Z,68940.91
2022-09-14T10:07:49.197Z,68940.56
2022-09-14T10:10:23.910Z,68919.56
2022-09-14T10:12:53.891Z,68915.03
2022-09-14T10:15:29.536Z,68932.75
2022-09-14T10:18:04.373Z,68939.78
2022-09-14T10:20:31.817Z,68938.66
2022-09-14T10:23:20.646Z,68958.78
2022-09-14T10:25:53.715Z,68951.00
2022-09-14T10:28:23.639Z,68962.56
2022-09-14T10:31:00.678Z,68971.09
2022-09-14T10:33:29.487Z,68941.75
2022-09-14T10:35:56.533Z,68970.50
2022-09-14T10:38:37.053Z,68975.09
2022-09-14T10:41:22.898Z,68946.31
2022-09-14T10:44:22.599Z,68966.38
2022-09-14T10:47:05.115Z,68964.06
2022-09-14T10:49:51.813Z,68956.84
2022-09-14T10:52:38.403Z,68929.25
2022-09-14T10:55:34.447Z,68923.00
2022-09-14T10:58:48.953Z,68911.06
2022-09-14T11:01:41.002Z,68932.75
2022-09-14T11:04:33.264Z,68932.41
2022-09-14T11:07:28.853Z,68936.38
2022-09-14T11:10:21.203Z,68940.72
2022-09-14T11:13:31.307Z,68941.88
2022-09-14T11:16:20.012Z,68938.81
2022-09-14T11:19:02.105Z,68940.34
2022-09-14T11:21:54.030Z,68942.06
2022-09-14T11:24:36.444Z,68947.19
2022-09-14T11:27:09.599Z,68961.22
2022-09-14T11:29:47.042Z,68929.25
2022-09-14T11:32:28.590Z,68955.53
2022-09-14T11:35:15.761Z,68951.16
2022-09-14T11:38:03.368Z,68950.19
2022-09-14T11:40:40.434Z,68928.69
2022-09-14T11:43:16.715Z,68926.97
2022-09-14T11:45:52.469Z,68952.72
2022-09-14T11:49:07.300Z,68932.09
2022-09-14T11:51:44.761Z,68955.53
2022-09-14T11:54:22.474Z,68957.25
2022-09-14T11:56:50.887Z,68956.84
2022-09-14T11:59:34.482Z,68958.97
2022-09-14T12:02:23.458Z,68954.41
2022-09-14T12:05:16.969Z,68963.31
2022-09-14T12:07:45.676Z,68949.16
2022-09-14T12:10:16.082Z,68962.94
2022-09-14T12:13:03.887Z,68957.41
2022-09-14T12:15:31.223Z,68957.41
2022-09-14T12:18:08.315Z,68937.22
2022-09-14T12:20:41.549Z,68951.44
2022-09-14T12:23:23.440Z,68974.91
2022-09-14T12:26:10.068Z,68973.75
2022-09-14T12:28:40.130Z,68964.06
2022-09-14T12:31:12.410Z,68958.41
2022-09-14T12:33:39.527Z,68966.72
2022-09-14T12:36:32.776Z,68945.19
2022-09-14T12:39:00.050Z,68962.94
2022-09-14T12:41:28.017Z,68969.03
2022-09-14T12:43:55.568Z,68976.03
2022-09-14T12:46:22.718Z,68978.31
2022-09-14T12:48:51.154Z,68957.72
2022-09-14T12:51:27.279Z,68982.69
2022-09-14T12:54:06.557Z,68981.34
2022-09-14T12:56:37.037Z,68988.75
2022-09-14T12:59:16.313Z,68992.53
2022-09-14T13:02:13.556Z,68977.63
2022-09-14T13:04:42.135Z,69002.97
2022-09-14T13:07:18.229Z,69004.69
2022-09-14T13:09:47.957Z,69015.09
2022-09-14T13:12:24.023Z,68985.03
2022-09-14T13:14:59.191Z,69004.09
2022-09-14T13:17:26.336Z,69006.22
2022-09-14T13:20:02.940Z,69005.09
2022-09-14T13:22:32.910Z,68974.22
2022-09-14T13:25:03.909Z,68995.41
2022-09-14T13:27:37.194Z,68984.56
2022-09-14T13:30:19.917Z,68975.09
2022-09-14T13:32:50.707Z,68951.44
2022-09-14T13:35:27.691Z,68977.34
2022-09-14T13:37:55.144Z,68982.88
2022-09-14T13:40:25.168Z,68988.00
2022-09-14T13:42:53.077Z,68988.56
2022-09-14T13:45:20.828Z,68980.03
2022-09-14T13:47:48.612Z,68983.44
2022-09-14T13:50:16.308Z,68972.97
2022-09-14T13:53:01.350Z,68975.81
2022-09-14T13:55:35.522Z,68982.88
2022-09-14T13:58:11.713Z,68979.63
2022-09-14T14:00:59.165Z,68975.81
2022-09-14T14:03:28.627Z,68978.88
2022-09-14T14:05:56.256Z,68984.56
2022-09-14T14:08:28.250Z,68979.44
2022-09-14T14:10:56.015Z,68976.59
2022-09-14T14:13:32.125Z,68977.16
2022-09-14T14:16:19.540Z,68968.81
2022-09-14T14:18:57.288Z,68951.75
2022-09-14T14:21:27.765Z,68949.28
2022-09-14T14:24:17.845Z,68937.34
2022-09-14T14:26:50.356Z,68926.50
2022-09-14T14:29:17.788Z,68925.00
2022-09-14T14:31:45.473Z,68927.66
2022-09-14T14:34:22.202Z,68940.72
2022-09-14T14:36:50.335Z,68926.69
2022-09-14T14:39:20.665Z,68899.06
2022-09-14T14:41:49.053Z,68916.25
2022-09-14T14:44:47.644Z,68913.41
2022-09-14T14:47:17.306Z,68913.19
2022-09-14T14:49:44.506Z,68912.44
2022-09-14T14:52:11.783Z,68906.38
2022-09-14T14:54:41.058Z,68908.28
2022-09-14T14:57:08.908Z,68907.13
2022-09-14T14:59:36.401Z,68884.84
2022-09-14T15:02:04.871Z,68913.03
2022-09-14T15:04:32.070Z,68911.31
2022-09-14T15:06:59.568Z,68910.00
2022-09-14T15:09:29.635Z,68905.22
2022-09-14T15:11:56.745Z,68910.72
2022-09-14T15:14:27.177Z,68910.16
2022-09-14T15:16:59.944Z,68913.59
2022-09-14T15:19:27.651Z,68908.06
2022-09-14T15:22:00.064Z,68912.44
2022-09-14T15:24:28.762Z,68913.59
2022-09-14T15:26:57.662Z,68910.16
2022-09-14T15:29:24.624Z,68907.50
2022-09-14T15:31:51.854Z,68909.59
2022-09-14T15:34:20.449Z,68907.88
2022-09-14T15:36:51.132Z,68886.00
2022-09-14T15:39:22.990Z,68910.56
2022-09-14T15:41:50.650Z,68906.00
2022-09-14T15:44:17.901Z,68906.56
2022-09-14T15:46:46.850Z,68908.28
2022-09-14T15:49:20.471Z,68904.06
2022-09-14T15:51:50.463Z,68912.44
2022-09-14T15:54:23.719Z,68905.03
2022-09-14T15:56:54.899Z,68903.72
2022-09-14T15:59:22.931Z,68891.56
2022-09-14T16:01:50.369Z,68870.63
2022-09-14T16:04:18.641Z,68890.81
2022-09-14T16:06:46.882Z,68887.78
2022-09-14T16:09:15.964Z,68884.97
2022-09-14T16:11:43.156Z,68878.31
2022-09-14T16:14:11.139Z,68873.00
2022-09-14T16:16:38.832Z,68847.31
2022-09-14T16:19:13.820Z,68864.06
2022-09-14T16:21:42.348Z,68866.94
2022-09-14T16:24:16.564Z,68839.34
2022-09-14T16:26:44.806Z,68868.44
2022-09-14T16:29:15.672Z,68867.31
2022-09-14T16:31:44.488Z,68865.22
2022-09-14T16:34:26.716Z,68860.09
2022-09-14T16:36:54.717Z,68856.88
2022-09-14T16:39:25.004Z,68872.03
2022-09-14T16:41:54.135Z,68868.44
2022-09-14T16:44:26.670Z,68867.31
2022-09-14T16:46:57.549Z,68858.22
2022-09-14T16:49:27.844Z,68847.03
2022-09-14T16:51:56.940Z,68849.09
2022-09-14T16:54:25.955Z,68849.69
2022-09-14T16:56:58.147Z,68818.31
2022-09-14T16:59:25.947Z,68838.88
2022-09-14T17:01:55.242Z,68832.41
2022-09-14T17:04:24.094Z,68831.06
2022-09-14T17:06:53.331Z,68822.38
2022-09-14T17:09:28.475Z,68825.97
2022-09-14T17:11:57.718Z,68824.06
2022-09-14T17:14:30.773Z,68817.44
2022-09-14T17:16:58.708Z,68815.72
2022-09-14T17:19:27.148Z,68820.09
2022-09-14T17:21:54.813Z,68818.78
2022-09-14T17:24:22.597Z,68817.25
2022-09-14T17:26:50.312Z,68815.94
2022-09-14T17:29:17.463Z,68812.13
2022-09-14T17:31:45.117Z,68819.53
2022-09-14T17:34:15.959Z,68816.13
2022-09-14T17:36:43.567Z,68815.56
2022-09-14T17:39:12.209Z,68822.56
2022-09-14T17:41:41.195Z,68806.38
2022-09-14T17:44:11.797Z,68830.53
2022-09-14T17:46:47.127Z,68797.84
2022-09-14T17:49:20.451Z,68814.59
2022-09-14T17:51:48.170Z,68815.16
2022-09-14T17:54:15.964Z,68798.84
2022-09-14T17:56:43.550Z,68804.75
2022-09-14T17:59:14.068Z,68807.19
2022-09-14T18:01:41.196Z,68811.56
2022-09-14T18:04:13.441Z,68802.66
2022-09-14T18:06:44.386Z,68803.06
2022-09-14T18:09:20.585Z,68805.13
2022-09-14T18:11:49.061Z,68800.94
2022-09-14T18:14:17.009Z,68801.50
2022-09-14T18:16:45.250Z,68800.75
2022-09-14T18:19:14.032Z,68808.53
2022-09-14T18:21:42.661Z,68793.53
2022-09-14T18:24:11.376Z,68794.69
2022-09-14T18:26:41.278Z,68795.81
2022-09-14T18:29:08.374Z,68772.22
2022-09-14T18:31:38.292Z,68794.31
2022-09-14T18:34:05.686Z,68776.78
2022-09-14T18:36:32.950Z,68785.19
2022-09-14T18:39:01.003Z,68786.72
2022-09-14T18:41:31.456Z,68783.88
2022-09-14T18:43:59.144Z,68792.78
2022-09-14T18:46:28.263Z,68785.00
2022-09-14T18:48:59.063Z,68783.31
2022-09-14T18:51:28.069Z,68776.88
2022-09-14T18:54:01.100Z,68778.75
2022-09-14T18:56:29.176Z,68778.19
2022-09-14T18:58:56.449Z,68754.63
2022-09-14T19:01:23.715Z,68746.66
2022-09-14T19:03:52.531Z,68774.75
2022-09-14T19:06:20.253Z,68772.88
2022-09-14T19:08:47.439Z,68761.88
2022-09-14T19:11:23.755Z,68775.53
2022-09-14T19:14:06.356Z,68769.47
2022-09-14T19:16:35.813Z,68758.47
2022-09-14T19:19:06.479Z,68767.75
2022-09-14T19:21:33.926Z,68762.81
2022-09-14T19:24:08.396Z,68758.09
2022-09-14T19:26:55.481Z,68748.25
2022-09-14T19:29:24.074Z,68746.34
2022-09-14T19:31:52.944Z,68751.44
2022-09-14T19:34:22.930Z,68750.72
2022-09-14T19:36:51.162Z,68744.09
2022-09-14T19:39:18.773Z,68752.03
2022-09-14T19:41:46.391Z,68752.03
2022-09-14T19:44:13.823Z,68763.78
2022-09-14T19:46:54.705Z,68742.94
2022-09-14T19:49:25.588Z,68746.00
2022-09-14T19:51:53.622Z,68746.00
2022-09-14T19:54:21.014Z,68755.81
2022-09-14T19:56:48.538Z,68739.25
2022-09-14T19:59:16.751Z,68756.22
2022-09-14T20:01:44.669Z,68746.75
2022-09-14T20:04:11.915Z,68743.31
2022-09-14T20:06:43.582Z,68740.66
2022-09-14T20:09:19.047Z,68745.22
2022-09-14T20:11:48.182Z,68713.69
2022-09-14T20:14:18.150Z,68742.00
2022-09-14T20:16:48.251Z,68743.72
2022-09-14T20:19:19.018Z,68747.69
2022-09-14T20:21:47.779Z,68740.09
2022-09-14T20:24:18.921Z,68736.50
2022-09-14T20:26:47.930Z,68729.84
2022-09-14T20:29:16.382Z,68739.91
2022-09-14T20:31:44.341Z,68735.38
2022-09-14T20:34:11.856Z,68731.75
2022-09-14T20:36:39.759Z,68709.16
2022-09-14T20:39:07.191Z,68733.09
2022-09-14T20:41:36.204Z,68732.31
2022-09-14T20:44:04.918Z,68731.00
2022-09-14T20:46:36.502Z,68725.88
2022-09-14T20:49:05.812Z,68725.72
2022-09-14T20:51:34.884Z,68704.03
2022-09-14T20:54:02.325Z,68722.47
2022-09-14T20:56:32.134Z,68725.72
2022-09-14T20:59:01.367Z,68729.69
2022-09-14T21:01:31.955Z,68723.03
2022-09-14T21:04:10.073Z,68727.59
2022-09-14T21:06:45.426Z,68724.56
2022-09-14T21:09:14.606Z,68709.97
2022-09-14T21:11:42.373Z,68711.13
2022-09-14T21:14:09.626Z,68703.13
2022-09-14T21:16:44.347Z,68701.06
2022-09-14T21:19:19.573Z,68693.31
2022-09-14T21:21:48.522Z,68688.78
2022-09-14T21:24:17.117Z,68701.09
2022-09-14T21:26:44.986Z,68669.94
2022-09-14T21:29:14.390Z,68678.16
2022-09-14T21:31:42.162Z,68674.19
2022-09-14T21:34:10.266Z,68673.03
2022-09-14T21:36:40.958Z,68676.09
2022-09-14T21:39:11.641Z,68672.47
2022-09-14T21:41:41.727Z,68676.84
2022-09-14T21:44:09.030Z,68676.25
2022-09-14T21:46:37.127Z,68671.72
2022-09-14T21:49:04.917Z,68666.78
2022-09-14T21:51:35.106Z,68670.56
2022-09-14T21:54:05.721Z,68672.66
2022-09-14T21:56:35.436Z,68671.31
2022-09-14T21:59:06.477Z,68660.34
2022-09-14T22:01:34.189Z,68652.00
2022-09-14T22:04:02.225Z,68645.75
2022-09-14T22:06:29.984Z,68643.47
2022-09-14T22:08:59.997Z,68650.28
2022-09-14T22:11:39.149Z,68640.81
2022-09-14T22:14:20.754Z,68613.13
2022-09-14T22:16:50.587Z,68635.53
2022-09-14T22:19:21.348Z,68644.44
2022-09-14T22:21:49.015Z,68633.81
2022-09-14T22:24:23.175Z,68634.78
2022-09-14T22:26:50.435Z,68641.22
2022-09-14T22:29:18.455Z,68630.59
2022-09-14T22:31:45.872Z,68644.59
2022-09-14T22:34:13.498Z,68645.94
2022-09-14T22:36:40.950Z,68643.47
2022-09-14T22:39:09.788Z,68641.00
2022-09-14T22:41:39.683Z,68637.22
2022-09-14T22:44:07.963Z,68640.81
2022-09-14T22:46:36.036Z,68621.06
2022-09-14T22:49:04.227Z,68638.75
2022-09-14T22:51:31.456Z,68638.00
2022-09-14T22:53:58.643Z,68628.91
2022-09-14T22:56:29.154Z,68608.59
2022-09-14T22:58:56.984Z,68626.44
2022-09-14T23:01:30.370Z,68619.03
2022-09-14T23:04:01.001Z,68614.13
2022-09-14T23:06:29.968Z,68621.69
2022-09-14T23:08:57.596Z,68620.19
2022-09-14T23:11:24.717Z,68615.28
2022-09-14T23:13:52.059Z,68617.53
2022-09-14T23:16:22.281Z,68618.50
2022-09-14T23:18:51.796Z,68620.56
2022-09-14T23:21:19.623Z,68622.84
2022-09-14T23:24:01.215Z,68614.69
2022-09-14T23:26:29.021Z,68594.38
2022-09-14T23:29:16.609Z,68617.94
2022-09-14T23:31:43.863Z,68597.81
2022-09-14T23:34:10.890Z,68624.16
2022-09-14T23:36:38.857Z,68593.81
2022-09-14T23:39:06.264Z,68621.31
2022-09-14T23:41:33.361Z,68620.19
2022-09-14T23:44:00.845Z,68617.72
2022-09-14T23:46:28.164Z,68589.28
2022-09-14T23:48:55.652Z,68596.09
2022-09-14T23:51:22.917Z,68613.38
2022-09-14T23:53:50.162Z,68607.28
2022-09-14T23:56:17.454Z,68615.63
2022-09-14T23:58:45.510Z,68617.16
